Time;durP1;ratioP1;P1;durP2;ratioP2;P2;SDS_P1;SDS_P2;PMS_P1;PMS_P2;Temp;Humidity;BMP_temperature;BMP_pressure;BME280_temperature;BME280_humidity;BME280_pressure;Samples;Min_cycle;Max_cycle;Signal;HPM_P1;HPM_P2
2022/09/01 00:00:10;;;;;;;4.82;3.00;;;15.20;24.10;;;;;;5157627;27;34924;-80
2022/09/01 00:02:36;;;;;;;3.35;2.63;;;15.20;24.60;;;;;;5156895;27;34457;-80
2022/09/01 00:05:04;;;;;;;3.05;2.75;;;15.20;23.80;;;;;;5158614;27;34177;-80
2022/09/01 00:07:31;;;;;;;5.88;2.60;;;15.10;23.70;;;;;;5157058;27;34152;-80
2022/09/01 00:09:58;;;;;;;4.05;2.85;;;15.10;24.30;;;;;;5175516;27;34509;-80
2022/09/01 00:12:24;;;;;;;3.28;2.55;;;15.10;24.40;;;;;;5157407;27;34263;-80
2022/09/01 00:14:51;;;;;;;5.22;3.13;;;15.10;24.20;;;;;;5157209;27;34288;-80
2022/09/01 00:17:17;;;;;;;3.72;2.58;;;15.10;24.30;;;;;;5177135;27;34160;-80
2022/09/01 00:19:43;;;;;;;3.28;2.78;;;15.00;24.20;;;;;;5157235;27;35827;-80
2022/09/01 00:22:09;;;;;;;4.43;2.58;;;15.00;23.60;;;;;;5140969;27;34301;-80
2022/09/01 00:24:35;;;;;;;7.97;2.75;;;15.00;24.00;;;;;;5176882;27;34146;-80
2022/09/01 00:27:01;;;;;;;4.93;2.97;;;15.00;23.90;;;;;;5176829;27;34451;-80
2022/09/01 00:29:28;;;;;;;3.20;2.90;;;14.90;23.80;;;;;;5140784;27;35613;-80
2022/09/01 00:31:54;;;;;;;5.50;3.00;;;14.90;23.80;;;;;;5158387;27;34171;-81
2022/09/01 00:34:20;;;;;;;6.45;3.22;;;14.90;24.10;;;;;;5158852;27;34070;-81
2022/09/01 00:36:47;;;;;;;3.08;2.63;;;14.80;23.80;;;;;;5158561;27;34349;-80
2022/09/01 00:39:13;;;;;;;3.30;3.00;;;14.90;23.70;;;;;;5157338;27;35679;-81
2022/09/01 00:41:43;;;;;;;3.42;3.13;;;14.80;24.00;;;;;;5176568;27;34232;-81
2022/09/01 00:44:13;;;;;;;4.25;3.20;;;14.80;23.80;;;;;;5159096;27;34089;-81
2022/09/01 00:46:42;;;;;;;4.25;3.17;;;14.80;23.90;;;;;;5157906;27;34487;-80
2022/09/01 00:49:14;;;;;;;4.53;3.30;;;14.70;24.20;;;;;;5140826;27;35647;-80
2022/09/01 00:51:43;;;;;;;6.00;3.17;;;14.70;24.20;;;;;;5176806;27;33618;-80
2022/09/01 00:54:14;;;;;;;4.22;3.13;;;14.70;24.50;;;;;;5177874;27;34298;-81
2022/09/01 00:56:41;;;;;;;4.50;3.22;;;14.70;24.20;;;;;;5141995;27;33992;-80
2022/09/01 00:59:10;;;;;;;4.15;3.03;;;14.60;24.40;;;;;;5157922;27;36339;-81
2022/09/01 01:01:36;;;;;;;3.83;3.30;;;14.60;24.30;;;;;;5157951;27;33870;-81
2022/09/01 01:04:05;;;;;;;3.58;3.25;;;14.60;24.20;;;;;;5158635;27;34283;-81
2022/09/01 01:06:32;;;;;;;4.18;3.35;;;14.60;24.20;;;;;;5157816;27;34112;-81
2022/09/01 01:08:59;;;;;;;5.70;3.35;;;14.60;24.00;;;;;;5141205;27;35707;-80
2022/09/01 01:11:28;;;;;;;7.65;3.42;;;14.50;24.50;;;;;;5159115;27;34134;-81
2022/09/01 01:16:47;;;;;;;4.70;3.13;;;14.50;24.30;;;;;;5177087;27;34076;-81
2022/09/01 01:25:14;;;;;;;3.75;3.25;;;14.40;24.10;;;;;;5176939;27;34269;-81
2022/09/01 01:27:41;;;;;;;8.13;3.78;;;14.40;23.70;;;;;;5137638;27;34091;-81
2022/09/01 01:30:09;;;;;;;4.45;3.53;;;14.30;23.90;;;;;;5135438;27;36001;-81
2022/09/01 01:32:39;;;;;;;4.45;3.20;;;14.30;23.70;;;;;;5158400;27;34059;-81
2022/09/01 01:35:05;;;;;;;6.40;3.63;;;14.30;23.80;;;;;;5158683;27;34330;-81
2022/09/01 01:37:34;;;;;;;6.50;3.60;;;14.30;23.80;;;;;;5158903;27;34079;-81
2022/09/01 01:40:01;;;;;;;4.10;3.20;;;14.30;24.20;;;;;;5172890;27;35372;-81
2022/09/01 01:42:28;;;;;;;6.35;3.40;;;14.20;23.70;;;;;;5157379;27;34077;-81
2022/09/01 01:44:54;;;;;;;6.57;3.22;;;14.20;24.00;;;;;;5150319;27;34212;-81
2022/09/01 01:47:20;;;;;;;4.10;3.63;;;14.20;24.10;;;;;;5140857;27;34151;-81
2022/09/01 01:49:46;;;;;;;4.47;3.78;;;14.20;24.10;;;;;;5139135;27;35996;-81
2022/09/01 01:52:16;;;;;;;5.13;3.08;;;14.20;24.00;;;;;;5155338;27;34243;-81
2022/09/01 01:54:45;;;;;;;4.38;3.00;;;14.20;24.40;;;;;;5175751;27;34757;-81
2022/09/01 01:57:15;;;;;;;3.45;2.88;;;14.10;24.50;;;;;;5140762;27;34456;-81
2022/09/01 01:59:42;;;;;;;6.88;3.53;;;14.10;24.00;;;;;;5140048;27;36450;-81
2022/09/01 02:02:09;;;;;;;3.53;3.20;;;14.10;24.40;;;;;;5138808;27;34059;-83
2022/09/01 02:04:35;;;;;;;3.88;3.47;;;14.00;23.90;;;;;;5157633;27;34119;-81
2022/09/01 02:07:01;;;;;;;5.60;3.75;;;14.00;24.20;;;;;;5157569;27;34083;-81
2022/09/01 02:09:27;;;;;;;13.25;3.90;;;14.00;24.40;;;;;;5140002;27;35491;-82
2022/09/01 02:11:56;;;;;;;9.20;3.63;;;13.90;24.60;;;;;;5157036;27;34252;-81
2022/09/01 02:14:22;;;;;;;4.43;3.50;;;14.00;24.40;;;;;;5175334;27;33964;-81
2022/09/01 02:16:48;;;;;;;4.13;3.35;;;13.90;24.70;;;;;;5151996;27;34258;-81
2022/09/01 02:19:19;;;;;;;6.65;3.63;;;13.90;24.70;;;;;;5152705;27;35597;-81
2022/09/01 02:21:54;;;;;;;4.88;3.50;;;13.90;24.50;;;;;;5173686;27;34242;-81
2022/09/01 02:24:22;;;;;;;5.75;3.42;;;13.90;24.50;;;;;;5155722;27;34421;-81
2022/09/01 02:26:49;;;;;;;4.72;3.70;;;13.80;24.70;;;;;;5155776;27;34308;-81
2022/09/01 02:29:20;;;;;;;6.97;4.07;;;13.80;24.80;;;;;;5155914;27;35909;-81
2022/09/01 02:31:49;;;;;;;9.30;3.92;;;13.80;25.00;;;;;;5155014;27;34314;-80
2022/09/01 02:34:16;;;;;;;4.13;3.65;;;13.80;25.00;;;;;;5155688;27;34222;-81
2022/09/01 02:36:46;;;;;;;8.10;3.83;;;13.80;24.50;;;;;;5154641;27;34172;-81
2022/09/01 02:39:15;;;;;;;3.92;3.53;;;13.70;25.00;;;;;;5174163;27;35428;-81
2022/09/01 02:41:41;;;;;;;3.75;3.45;;;13.70;25.20;;;;;;5154496;27;34338;-81
2022/09/01 02:44:10;;;;;;;5.47;4.00;;;13.70;25.10;;;;;;5137030;27;34303;-80
2022/09/01 02:46:40;;;;;;;7.05;4.07;;;13.70;25.00;;;;;;5150516;27;34168;-81
2022/09/01 02:49:14;;;;;;;4.35;3.45;;;13.70;25.00;;;;;;5150955;27;35896;-81
2022/09/01 02:51:42;;;;;;;5.10;3.65;;;13.60;25.00;;;;;;5134534;27;34309;-81
2022/09/01 02:54:09;;;;;;;3.90;3.50;;;13.60;25.10;;;;;;5150797;27;34124;-81
2022/09/01 02:56:36;;;;;;;4.13;3.70;;;13.60;25.10;;;;;;5151311;27;34523;-81
2022/09/01 02:59:02;;;;;;;4.03;3.63;;;13.50;24.50;;;;;;5150988;27;35544;-81
2022/09/01 03:01:31;;;;;;;4.03;3.63;;;13.50;25.00;;;;;;5150249;27;34118;-80
2022/09/01 03:04:00;;;;;;;4.78;3.80;;;13.50;24.70;;;;;;5156600;27;34269;-81
2022/09/01 03:06:28;;;;;;;4.28;3.88;;;13.40;25.00;;;;;;5156824;27;34500;-80
2022/09/01 03:08:58;;;;;;;7.60;3.75;;;13.40;25.10;;;;;;5157359;27;35624;-80
2022/09/01 03:11:25;;;;;;;3.97;3.58;;;13.40;25.20;;;;;;5156538;27;34131;-80
2022/09/01 03:13:52;;;;;;;4.88;3.75;;;13.40;25.10;;;;;;5156500;27;34066;-80
2022/09/01 03:16:20;;;;;;;9.07;3.97;;;13.40;24.60;;;;;;5158873;27;34381;-80
2022/09/01 03:18:46;;;;;;;4.20;3.80;;;13.40;25.20;;;;;;5158159;27;34160;-80
2022/09/01 03:21:15;;;;;;;3.92;3.53;;;13.30;25.20;;;;;;5157370;27;34304;-81
2022/09/01 03:23:44;;;;;;;4.20;3.80;;;13.30;25.20;;;;;;5157449;27;34371;-81
2022/09/01 03:26:11;;;;;;;4.38;3.70;;;13.30;24.80;;;;;;5158943;27;34238;-80
2022/09/01 03:28:36;;;;;;;4.07;3.67;;;13.20;24.80;;;;;;5157722;27;35147;-80
2022/09/01 03:31:03;;;;;;;4.50;3.60;;;13.20;24.70;;;;;;5157228;27;34117;-80
2022/09/01 03:33:31;;;;;;;5.13;3.85;;;13.20;24.80;;;;;;5156779;27;34079;-80
2022/09/01 03:35:57;;;;;;;4.03;3.63;;;13.20;24.70;;;;;;5159250;27;34088;-80
2022/09/01 03:38:24;;;;;;;4.35;3.58;;;13.20;25.10;;;;;;5121892;27;36218;-80
2022/09/01 03:40:53;;;;;;;4.30;3.88;;;13.10;24.70;;;;;;5140381;27;34203;-79
2022/09/01 03:43:23;;;;;;;6.30;4.13;;;13.10;24.50;;;;;;5156899;27;34209;-80
2022/09/01 03:45:50;;;;;;;6.43;3.70;;;13.10;25.20;;;;;;5159797;27;34428;-80
2022/09/01 03:48:16;;;;;;;4.13;3.47;;;13.10;25.20;;;;;;5160117;27;36330;-80
2022/09/01 03:50:44;;;;;;;4.15;3.58;;;13.10;25.20;;;;;;5158957;27;34205;-80
2022/09/01 03:53:12;;;;;;;5.05;3.80;;;13.00;25.10;;;;;;5160868;27;34140;-80
2022/09/01 03:55:39;;;;;;;4.07;3.63;;;13.00;25.10;;;;;;5141851;27;34091;-79
2022/09/01 03:58:08;;;;;;;3.92;3.53;;;13.00;25.20;;;;;;5160228;27;36460;-79
2022/09/01 04:00:38;;;;;;;4.75;3.58;;;13.00;25.40;;;;;;5142263;27;34435;-79
2022/09/01 04:03:07;;;;;;;4.60;3.88;;;12.90;25.40;;;;;;5160328;27;33720;-79
2022/09/01 04:05:36;;;;;;;4.22;3.83;;;12.90;25.30;;;;;;5159924;27;34172;-79
2022/09/01 04:08:05;;;;;;;5.05;3.90;;;12.80;25.30;;;;;;5159420;27;36305;-79
2022/09/01 04:10:33;;;;;;;7.60;3.75;;;12.80;25.30;;;;;;5143086;27;34243;-79
2022/09/01 04:13:01;;;;;;;4.72;3.63;;;12.80;25.20;;;;;;5160661;27;34354;-79
2022/09/01 04:15:28;;;;;;;3.63;3.25;;;12.70;25.20;;;;;;5156580;27;34463;-79
2022/09/01 04:23:25;;;;;;;4.30;3.63;;;12.60;25.40;;;;;;5174567;27;34229;-79
2022/09/01 04:25:55;;;;;;;4.68;3.60;;;12.60;25.60;;;;;;5156486;27;34675;-79
2022/09/01 04:28:25;;;;;;;4.10;3.72;;;12.60;25.30;;;;;;5139399;27;36559;-80
2022/09/01 04:30:54;;;;;;;5.28;3.95;;;12.50;25.50;;;;;;5139092;27;34480;-79
2022/09/01 04:33:23;;;;;;;4.10;3.72;;;12.50;25.60;;;;;;5138084;27;34124;-80
2022/09/01 04:35:50;;;;;;;5.25;3.97;;;12.50;25.50;;;;;;5156234;27;34164;-79
2022/09/01 04:38:17;;;;;;;3.83;3.50;;;12.50;25.50;;;;;;5156356;27;35417;-79
2022/09/01 04:40:43;;;;;;;6.93;3.80;;;12.50;25.30;;;;;;5155447;27;34330;-79
2022/09/01 04:43:09;;;;;;;4.97;4.00;;;12.40;25.10;;;;;;5156047;27;34127;-80
2022/09/01 04:45:36;;;;;;;5.35;3.90;;;12.40;25.20;;;;;;5155595;27;34435;-79
2022/09/01 04:48:04;;;;;;;4.75;4.18;;;12.40;25.10;;;;;;5155024;27;35554;-79
2022/09/01 04:50:31;;;;;;;4.22;3.70;;;12.30;25.30;;;;;;5154485;27;34307;-79
2022/09/01 04:53:00;;;;;;;4.18;3.78;;;12.30;25.30;;;;;;5174170;27;34144;-79
2022/09/01 04:55:28;;;;;;;5.63;3.65;;;12.30;25.20;;;;;;5155498;27;33967;-79
2022/09/01 04:57:56;;;;;;;5.30;3.85;;;12.30;25.20;;;;;;5154434;27;36324;-79
2022/09/01 05:00:25;;;;;;;4.32;3.72;;;12.30;25.20;;;;;;5155011;27;34094;-79
2022/09/01 05:03:00;;;;;;;4.10;3.70;;;12.30;25.10;;;;;;5155632;27;34055;-79
2022/09/01 05:05:26;;;;;;;4.93;4.07;;;12.30;25.20;;;;;;5155011;27;34359;-79
2022/09/01 05:07:54;;;;;;;3.70;3.40;;;12.30;25.60;;;;;;5155046;27;35748;-80
2022/09/01 05:10:21;;;;;;;5.05;4.30;;;12.30;25.00;;;;;;5137583;27;34160;-79
2022/09/01 05:12:48;;;;;;;8.00;4.40;;;12.30;24.80;;;;;;5154907;27;34219;-79
2022/09/01 05:15:16;;;;;;;5.10;3.78;;;12.30;25.50;;;;;;5155569;27;33883;-79
2022/09/01 05:17:42;;;;;;;6.43;4.00;;;12.30;25.50;;;;;;5155105;27;35611;-79
2022/09/01 05:20:10;;;;;;;5.07;4.07;;;12.30;25.20;;;;;;5154611;27;34023;-79
2022/09/01 05:22:39;;;;;;;4.57;3.85;;;12.30;25.20;;;;;;5154420;27;34260;-79
2022/09/01 05:25:12;;;;;;;5.72;3.97;;;12.30;25.20;;;;;;5156418;27;34517;-79
2022/09/01 05:27:41;;;;;;;5.60;4.00;;;12.30;25.10;;;;;;5152340;27;34551;-79
2022/09/01 05:30:07;;;;;;;6.40;4.00;;;12.30;25.30;;;;;;5151302;27;34125;-79
2022/09/01 05:32:36;;;;;;;4.18;3.75;;;12.30;25.10;;;;;;5136587;27;33780;-79
2022/09/01 05:35:07;;;;;;;4.20;3.80;;;12.30;25.30;;;;;;5153579;27;34093;-79
2022/09/01 05:37:36;;;;;;;5.57;3.70;;;12.40;25.20;;;;;;5135674;27;35809;-79
2022/09/01 05:40:05;;;;;;;4.80;3.70;;;12.40;24.80;;;;;;5153233;27;34096;-79
2022/09/01 05:42:31;;;;;;;4.35;3.92;;;12.40;25.00;;;;;;5152030;27;34043;-79
2022/09/01 05:44:57;;;;;;;5.10;4.57;;;12.40;25.30;;;;;;5153422;27;34129;-79
2022/09/01 05:47:25;;;;;;;5.15;4.25;;;12.40;25.10;;;;;;5136175;27;35592;-79
2022/09/01 05:49:52;;;;;;;9.73;4.07;;;12.40;25.40;;;;;;5147347;27;34146;-79
2022/09/01 05:52:23;;;;;;;6.28;3.85;;;12.50;25.40;;;;;;5150552;27;34294;-79
2022/09/01 05:54:50;;;;;;;4.57;3.92;;;12.50;25.30;;;;;;5154330;27;34335;-79
2022/09/01 05:57:18;;;;;;;4.45;3.85;;;12.60;25.10;;;;;;5165401;27;34320;-79
2022/09/01 05:59:45;;;;;;;5.25;4.30;;;12.60;25.40;;;;;;5154367;27;34095;-79
2022/09/01 06:02:12;;;;;;;4.28;3.80;;;12.70;25.40;;;;;;5172045;27;34174;-81
2022/09/01 06:04:40;;;;;;;5.05;4.50;;;12.80;25.40;;;;;;5170617;27;34375;-80
2022/09/01 06:07:08;;;;;;;5.03;4.30;;;12.80;25.50;;;;;;5152746;27;34615;-80
2022/09/01 06:09:38;;;;;;;5.40;4.68;;;12.90;25.50;;;;;;5152848;27;34100;-81
2022/09/01 06:12:05;;;;;;;4.95;4.28;;;13.00;25.80;;;;;;5172099;27;34403;-80
2022/09/01 06:14:31;;;;;;;6.35;5.20;;;13.10;26.00;;;;;;5154849;27;34077;-81
2022/09/01 06:16:57;;;;;;;6.15;4.80;;;13.40;26.00;;;;;;5154335;27;35487;-80
2022/09/01 06:19:23;;;;;;;6.05;5.13;;;14.00;25.20;;;;;;5125810;27;34355;-80
2022/09/01 06:21:50;;;;;;;9.48;5.60;;;14.80;23.80;;;;;;5113688;27;34195;-80
2022/09/01 06:24:35;;;;;;;7.70;5.13;;;15.60;22.50;;;;;;5152422;27;34073;-80
2022/09/01 06:27:01;;;;;;;5.03;4.63;;;16.50;22.70;;;;;;5130311;27;36734;-80
2022/09/01 06:29:30;;;;;;;3.92;3.63;;;17.10;20.30;;;;;;5150069;27;34278;-80
2022/09/01 06:31:57;;;;;;;3.30;3.00;;;17.60;19.60;;;;;;5139240;27;34119;-80
2022/09/01 06:34:25;;;;;;;3.72;3.42;;;17.90;19.10;;;;;;5157124;27;34224;-80
2022/09/01 06:36:51;;;;;;;3.45;3.20;;;18.40;18.90;;;;;;5139877;27;36876;-80
2022/09/01 06:39:18;;;;;;;3.05;2.85;;;18.70;18.40;;;;;;5154154;27;34040;-80
2022/09/01 06:41:48;;;;;;;3.15;2.92;;;19.00;18.20;;;;;;5171518;27;34150;-79
2022/09/01 06:44:14;;;;;;;3.50;3.03;;;19.20;17.90;;;;;;5173399;27;34054;-79
2022/09/01 06:46:40;;;;;;;4.68;3.20;;;19.10;17.90;;;;;;5170208;27;34601;-79
2022/09/01 06:49:10;;;;;;;3.28;3.03;;;19.00;18.50;;;;;;5152307;27;34209;-79
2022/09/01 06:51:37;;;;;;;5.85;3.20;;;18.80;19.10;;;;;;5168279;27;34242;-79
2022/09/01 06:54:04;;;;;;;3.65;3.35;;;18.60;19.30;;;;;;5129999;27;34184;-79
2022/09/01 06:56:32;;;;;;;3.08;2.88;;;18.50;20.00;;;;;;5113477;27;36772;-80
2022/09/01 06:59:00;;;;;;;10.57;3.60;;;18.30;20.40;;;;;;5132521;27;34260;-79
2022/09/01 07:01:30;;;;;;;3.63;3.33;;;18.30;20.80;;;;;;5151575;27;34058;-79
2022/09/01 07:03:56;;;;;;;3.97;3.58;;;18.30;21.60;;;;;;5168811;27;34509;-79
2022/09/01 07:06:26;;;;;;;4.00;3.60;;;18.20;21.70;;;;;;5171256;27;34301;-79
2022/09/01 07:08:54;;;;;;;3.80;3.50;;;18.20;21.50;;;;;;5171493;27;34272;-80
2022/09/01 07:11:24;;;;;;;3.97;3.58;;;18.20;22.10;;;;;;5171968;27;34363;-80
2022/09/01 07:13:54;;;;;;;6.78;4.05;;;18.20;22.50;;;;;;5173391;27;34226;-81
2022/09/01 07:16:22;;;;;;;4.70;4.10;;;18.20;22.70;;;;;;5136217;27;35729;-81
2022/09/01 07:18:49;;;;;;;4.60;3.70;;;18.30;22.80;;;;;;5153196;27;34182;-80
2022/09/01 07:21:16;;;;;;;5.30;3.45;;;18.30;22.70;;;;;;5154721;27;34136;-81
2022/09/01 07:23:43;;;;;;;3.92;3.53;;;18.40;22.80;;;;;;5154226;27;34261;-81
2022/09/01 07:26:09;;;;;;;9.07;3.25;;;18.50;22.90;;;;;;5154779;27;35577;-82
2022/09/01 07:28:36;;;;;;;6.05;3.95;;;18.60;22.60;;;;;;5171528;27;34057;-81
2022/09/01 07:31:04;;;;;;;3.38;3.08;;;18.70;22.40;;;;;;5137345;27;34351;-81
2022/09/01 07:33:32;;;;;;;4.10;3.03;;;18.70;22.10;;;;;;5132390;27;34613;-83
2022/09/01 07:35:59;;;;;;;3.53;2.75;;;18.80;21.40;;;;;;5133568;27;35416;-83
2022/09/01 07:38:27;;;;;;;3.22;2.83;;;18.80;21.10;;;;;;5116681;27;34052;-80
2022/09/01 07:41:20;;;;;;;3.25;2.95;;;18.90;21.10;;;;;;5168611;27;34278;-80
2022/09/01 07:43:50;;;;;;;2.97;2.70;;;19.00;21.20;;;;;;5148269;27;34441;-80
2022/09/01 07:46:22;;;;;;;3.67;2.90;;;19.10;21.00;;;;;;5139261;27;36607;-80
2022/09/01 07:48:51;;;;;;;4.85;2.55;;;19.30;20.90;;;;;;5139108;27;34223;-80
2022/09/01 07:51:19;;;;;;;4.55;2.63;;;19.40;21.30;;;;;;5149105;27;34127;-79
2022/09/01 07:53:47;;;;;;;2.88;2.67;;;19.50;21.40;;;;;;5113751;27;34576;-79
2022/09/01 07:56:17;;;;;;;4.72;2.65;;;19.60;20.60;;;;;;5124165;27;36775;-79
2022/09/01 07:58:44;;;;;;;2.70;2.38;;;19.70;20.60;;;;;;5150584;27;34202;-79
2022/09/01 08:01:16;;;;;;;2.83;2.53;;;19.80;20.30;;;;;;5152378;27;34126;-80
2022/09/01 08:03:42;;;;;;;3.45;2.50;;;19.90;20.10;;;;;;5151597;27;34138;-79
2022/09/01 08:06:10;;;;;;;4.55;2.70;;;19.90;20.40;;;;;;5168729;27;35540;-78
2022/09/01 08:08:38;;;;;;;3.10;2.80;;;20.10;20.20;;;;;;5150378;27;34054;-78
2022/09/01 08:11:05;;;;;;;2.42;2.22;;;20.20;19.90;;;;;;5150761;27;34230;-78
2022/09/01 08:13:34;;;;;;;2.75;2.55;;;20.30;20.00;;;;;;5151991;27;34152;-79
2022/09/01 08:16:05;;;;;;;2.60;2.40;;;20.40;19.20;;;;;;5145376;27;36821;-78
2022/09/01 08:18:32;;;;;;;3.42;2.30;;;20.50;19.30;;;;;;5150452;27;34311;-77
2022/09/01 08:20:58;;;;;;;4.15;2.40;;;20.70;19.50;;;;;;5111820;27;34147;-78
2022/09/01 08:23:26;;;;;;;3.72;2.33;;;20.90;19.20;;;;;;5162272;27;34161;-77
2022/09/01 08:25:53;;;;;;;2.55;2.35;;;21.10;18.50;;;;;;5126639;27;36042;-78
2022/09/01 08:28:19;;;;;;;2.60;2.30;;;21.30;18.10;;;;;;5133844;27;34115;-78
2022/09/01 08:30:47;;;;;;;2.88;2.58;;;21.50;17.80;;;;;;5114977;27;34180;-77
2022/09/01 08:33:14;;;;;;;2.40;2.20;;;21.80;18.00;;;;;;5151347;27;34316;-77
2022/09/01 08:35:42;;;;;;;2.97;2.28;;;22.10;17.50;;;;;;5151549;27;36697;-77
2022/09/01 08:38:08;;;;;;;5.50;2.45;;;22.40;17.10;;;;;;5152193;27;34029;-80
2022/09/01 08:40:35;;;;;;;3.08;2.08;;;22.60;16.40;;;;;;5151938;27;34343;-78
2022/09/01 08:43:25;;;;;;;9.45;2.30;;;22.70;15.70;;;;;;5152486;27;34365;-77
2022/09/01 08:45:54;;;;;;;2.22;2.03;;;22.90;13.00;;;;;;5139798;27;35835;-78
2022/09/01 08:48:30;;;;;;;3.85;2.30;;;23.00;14.20;;;;;;5149850;27;34128;-78
2022/09/01 08:51:05;;;;;;;2.97;2.05;;;23.10;14.70;;;;;;5130742;27;34320;-79
2022/09/01 08:53:40;;;;;;;6.60;2.67;;;23.30;13.80;;;;;;5114190;27;34354;-78
2022/09/01 08:56:09;;;;;;;3.50;2.28;;;23.40;12.70;;;;;;5150475;27;35326;-78
2022/09/01 08:58:36;;;;;;;4.32;2.20;;;23.50;13.90;;;;;;5150968;27;34109;-80
2022/09/01 09:01:14;;;;;;;4.82;2.13;;;23.60;14.10;;;;;;5115871;27;34431;-80
2022/09/01 09:03:53;;;;;;;2.67;2.25;;;23.80;13.20;;;;;;5120271;27;34565;-79
2022/09/01 09:06:27;;;;;;;2.38;2.05;;;23.90;12.20;;;;;;5127118;27;36246;-80
2022/09/01 09:08:59;;;;;;;2.45;1.95;;;24.10;12.70;;;;;;5149809;27;34445;-77
2022/09/01 09:11:51;;;;;;;2.22;2.03;;;24.10;11.80;;;;;;5150532;27;34197;-77
2022/09/01 09:14:40;;;;;;;3.75;2.00;;;24.00;9.00;;;;;;5169296;27;34183;-77
2022/09/01 09:17:07;;;;;;;5.43;2.00;;;24.20;10.00;;;;;;5150548;27;35592;-76
2022/09/01 09:19:39;;;;;;;2.92;2.33;;;24.30;12.70;;;;;;5132425;27;34303;-77
2022/09/01 09:22:12;;;;;;;2.78;2.00;;;24.50;10.40;;;;;;5150370;27;34140;-79
2022/09/01 09:24:54;;;;;;;2.65;2.17;;;24.60;11.90;;;;;;5149900;27;34051;-78
2022/09/01 09:27:32;;;;;;;3.40;2.22;;;24.70;7.90;;;;;;5160707;27;34234;-77
2022/09/01 09:30:04;;;;;;;2.65;1.98;;;24.80;9.90;;;;;;5130678;27;34323;-77
2022/09/01 09:32:51;;;;;;;3.15;2.33;;;24.80;10.60;;;;;;5147326;27;34327;-77
2022/09/01 09:35:41;;;;;;;2.55;2.30;;;24.90;7.30;;;;;;5168993;27;34448;-78
2022/09/01 09:38:21;;;;;;;2.45;1.80;;;25.00;7.20;;;;;;5150395;27;36236;-79
2022/09/01 09:41:05;;;;;;;2.35;2.15;;;24.80;5.60;;;;;;5169308;27;34078;-78
2022/09/01 09:43:35;;;;;;;2.55;2.25;;;24.90;6.20;;;;;;5151160;27;34095;-78
2022/09/01 09:46:23;;;;;;;2.55;2.30;;;24.90;8.50;;;;;;5151794;27;34611;-78
2022/09/01 09:49:07;;;;;;;2.50;2.30;;;25.00;5.60;;;;;;5133916;27;36163;-80
2022/09/01 09:51:34;;;;;;;2.50;2.13;;;24.90;6.70;;;;;;5133666;27;34268;-78
2022/09/01 09:54:18;;;;;;;2.35;2.15;;;25.00;9.90;;;;;;5150615;27;34173;-78
2022/09/01 09:56:45;;;;;;;2.60;2.25;;;25.10;6.30;;;;;;5150624;27;34255;-77
2022/09/01 09:59:26;;;;;;;3.10;2.35;;;25.20;8.80;;;;;;5150238;27;35645;-78
2022/09/01 10:02:09;;;;;;;6.47;2.63;;;25.30;5.10;;;;;;5132601;27;34184;-78
2022/09/01 10:04:37;;;;;;;2.38;2.17;;;25.50;7.20;;;;;;5149394;27;34176;-78
2022/09/01 10:07:24;;;;;;;3.28;2.58;;;25.80;7.00;;;;;;5152179;27;34897;-79
2022/09/01 10:09:51;;;;;;;3.42;2.35;;;26.20;4.10;;;;;;5133139;27;35541;-78
2022/09/01 10:12:17;;;;;;;2.17;1.98;;;26.10;8.10;;;;;;5131844;27;34167;-78
2022/09/01 10:14:53;;;;;;;2.55;2.35;;;26.30;7.80;;;;;;5169015;27;34447;-78
2022/09/01 10:17:27;;;;;;;2.58;2.30;;;26.30;6.20;;;;;;5142279;27;34092;-78
2022/09/01 10:20:04;;;;;;;2.45;2.25;;;26.50;5.80;;;;;;5138705;27;36783;-78
2022/09/01 10:22:32;;;;;;;2.35;2.03;;;26.70;4.60;;;;;;5130710;27;34131;-78
2022/09/01 10:24:59;;;;;;;2.83;2.17;;;26.70;5.90;;;;;;5151078;27;34134;-78
2022/09/01 10:27:31;;;;;;;4.82;2.00;;;26.60;5.80;;;;;;5149616;27;34660;-77
2022/09/01 10:30:13;;;;;;;2.97;2.42;;;26.70;5.10;;;;;;5149977;27;36743;-79
2022/09/01 10:32:43;;;;;;;4.13;2.10;;;26.70;1.00;;;;;;5149011;27;34110;-78
2022/09/01 10:35:17;;;;;;;2.10;1.95;;;26.80;4.00;;;;;;5168051;27;34196;-78
2022/09/01 10:37:45;;;;;;;3.75;2.20;;;26.90;3.60;;;;;;5149045;27;34519;-79
2022/09/01 10:40:29;;;;;;;3.30;2.35;;;27.00;5.00;;;;;;5169100;27;34403;-79
2022/09/01 10:42:57;;;;;;;3.63;2.08;;;26.90;4.00;;;;;;5134272;27;34242;-78
2022/09/01 10:45:34;;;;;;;2.83;2.25;;;26.90;4.90;;;;;;5169757;27;34038;-79
2022/09/01 10:48:23;;;;;;;2.63;2.20;;;26.80;1.00;;;;;;5149578;27;34326;-77
2022/09/01 10:50:52;;;;;;;4.53;2.47;;;27.00;1.00;;;;;;5131201;27;35719;-77
2022/09/01 10:53:42;;;;;;;3.88;2.47;;;27.00;4.10;;;;;;5130985;27;34097;-77
2022/09/01 10:56:27;;;;;;;4.05;2.53;;;27.10;2.10;;;;;;5130731;27;34304;-77
2022/09/01 10:59:24;;;;;;;2.38;2.17;;;27.40;1.60;;;;;;5130986;27;34451;-77
2022/09/01 11:02:11;;;;;;;3.50;2.42;;;27.70;2.90;;;;;;5144443;27;36633;-77
2022/09/01 11:05:13;;;;;;;2.40;2.20;;;27.90;1.00;;;;;;5130221;27;34364;-77
2022/09/01 11:07:39;;;;;;;3.95;2.28;;;27.90;1.00;;;;;;5153398;27;34112;-76
2022/09/01 11:10:31;;;;;;;2.50;2.30;;;27.80;3.70;;;;;;5147741;27;35158;-78
2022/09/01 11:13:25;;;;;;;2.20;1.90;;;27.70;1.70;;;;;;5134306;27;36398;-77
2022/09/01 11:15:53;;;;;;;2.53;2.33;;;27.80;1.00;;;;;;5147557;27;33902;-78
2022/09/01 11:18:30;;;;;;;2.75;2.10;;;28.00;2.20;;;;;;5148374;27;34239;-76
2022/09/01 11:21:16;;;;;;;2.58;2.33;;;27.90;1.00;;;;;;5162275;27;34138;-77
2022/09/01 11:23:45;;;;;;;2.67;2.00;;;27.70;1.00;;;;;;5114983;27;36698;-78
2022/09/01 11:26:46;;;;;;;4.93;2.70;;;27.40;3.20;;;;;;5151815;27;34175;-77
2022/09/01 11:29:43;;;;;;;2.38;2.17;;;27.40;1.00;;;;;;5139351;27;34071;-78
2022/09/01 11:32:10;;;;;;;2.28;2.08;;;27.60;1.00;;;;;;5151167;27;34534;-77
2022/09/01 11:34:43;;;;;;;6.38;2.47;;;27.60;3.00;;;;;;5134397;27;35712;-77
2022/09/01 11:37:15;;;;;;;4.18;2.47;;;27.90;1.80;;;;;;5116965;27;34189;-77
2022/09/01 11:39:48;;;;;;;2.28;2.08;;;28.00;2.60;;;;;;5149327;27;34915;-77
2022/09/01 11:42:23;;;;;;;4.35;1.95;;;28.20;1.00;;;;;;5128196;27;34202;-75
2022/09/01 11:45:00;;;;;;;2.03;1.88;;;28.40;1.00;;;;;;5147539;27;36008;-76
2022/09/01 11:47:32;;;;;;;2.40;2.20;;;28.60;1.40;;;;;;5165876;27;34102;-75
2022/09/01 11:50:03;;;;;;;2.70;2.00;;;28.80;1.00;;;;;;5150706;27;34160;-77
2022/09/01 11:52:35;;;;;;;2.20;1.80;;;28.80;1.00;;;;;;5150752;27;34483;-75
2022/09/01 11:55:02;;;;;;;1.98;1.85;;;28.70;1.00;;;;;;5150318;27;36494;-76
2022/09/01 11:57:32;;;;;;;3.20;2.28;;;28.60;1.50;;;;;;5116392;27;34204;-75
2022/09/01 12:00:01;;;;;;;2.47;1.67;;;28.60;1.00;;;;;;5150321;27;34312;-76
2022/09/01 12:02:32;;;;;;;3.22;2.08;;;28.60;1.00;;;;;;5151033;27;34389;-76
2022/09/01 12:05:00;;;;;;;3.28;2.17;;;28.50;1.00;;;;;;5133665;27;36551;-77
2022/09/01 12:07:41;;;;;;;2.50;2.30;;;28.50;1.00;;;;;;5150854;27;34429;-76
2022/09/01 12:10:43;;;;;;;2.90;2.03;;;28.50;1.00;;;;;;5151827;27;34120;-76
2022/09/01 12:13:16;;;;;;;3.70;2.05;;;28.60;1.00;;;;;;5162271;27;34181;-76
2022/09/01 12:15:43;;;;;;;2.47;1.75;;;28.70;1.00;;;;;;5150411;27;35922;-76
2022/09/01 12:18:26;;;;;;;2.20;1.98;;;28.70;1.00;;;;;;5133464;27;34177;-77
2022/09/01 12:20:56;;;;;;;6.75;2.17;;;28.70;1.00;;;;;;5150133;27;34269;-76
2022/09/01 12:23:26;;;;;;;4.60;2.03;;;28.80;1.00;;;;;;5150303;27;34327;-77
2022/09/01 12:25:55;;;;;;;4.00;2.55;;;28.70;1.00;;;;;;5168850;27;34567;-75
2022/09/01 12:28:26;;;;;;;4.35;2.00;;;28.50;1.00;;;;;;5133144;27;34154;-75
2022/09/01 12:30:54;;;;;;;2.83;1.90;;;28.30;1.00;;;;;;5133103;27;34098;-76
2022/09/01 12:33:20;;;;;;;3.22;2.33;;;28.00;1.00;;;;;;5133157;27;34051;-77
2022/09/01 12:35:47;;;;;;;2.38;2.17;;;27.80;1.00;;;;;;5149125;27;35646;-76
2022/09/01 12:38:23;;;;;;;3.00;2.00;;;27.70;1.00;;;;;;5168896;27;34199;-74
2022/09/01 12:40:53;;;;;;;4.43;2.15;;;27.70;1.00;;;;;;5149772;27;34160;-76
2022/09/01 12:43:37;;;;;;;2.50;2.13;;;27.70;1.00;;;;;;5168136;27;34471;-75
2022/09/01 12:46:05;;;;;;;2.30;2.03;;;27.60;1.00;;;;;;5168206;27;34042;-76
2022/09/01 12:48:35;;;;;;;4.35;2.25;;;27.60;1.00;;;;;;5132691;27;34320;-76
2022/09/01 12:51:14;;;;;;;4.32;2.17;;;27.40;1.00;;;;;;5150215;27;34216;-76
2022/09/01 12:53:50;;;;;;;2.20;2.03;;;27.10;1.00;;;;;;5149747;27;34383;-76
2022/09/01 12:56:32;;;;;;;3.10;2.20;;;27.00;1.00;;;;;;5149283;27;36393;-75
2022/09/01 12:59:12;;;;;;;2.47;2.08;;;26.90;1.00;;;;;;5149641;27;34307;-76
2022/09/01 13:01:40;;;;;;;3.13;2.50;;;26.90;1.00;;;;;;5132781;27;34182;-77
2022/09/01 13:04:24;;;;;;;3.50;2.30;;;26.90;1.00;;;;;;5132725;27;34414;-76
2022/09/01 13:06:52;;;;;;;2.40;2.20;;;26.90;1.00;;;;;;5148965;27;36190;-76
2022/09/01 13:09:18;;;;;;;2.25;2.05;;;26.90;1.00;;;;;;5132933;27;34086;-76
2022/09/01 13:11:46;;;;;;;2.95;2.10;;;26.80;1.00;;;;;;5149141;27;34133;-76
2022/09/01 13:14:14;;;;;;;3.05;2.38;;;26.80;1.00;;;;;;5149889;27;34136;-74
2022/09/01 13:16:41;;;;;;;2.67;2.47;;;26.90;1.00;;;;;;5148840;27;36072;-77
2022/09/01 13:19:07;;;;;;;2.78;2.22;;;27.10;1.00;;;;;;5149343;27;34228;-75
2022/09/01 13:21:35;;;;;;;2.58;2.35;;;27.20;1.00;;;;;;5149321;27;34537;-76